sensor_id;sensor_type;location;lat;lon;timestamp;pressure;altitude;pressure_sealevel;temperature;humidity
72086;BME280;64750;52.134;5.424;2023-05-23T00:01:03;102071.50;;;16.29;73.60
72086;BME280;64750;52.134;5.424;2023-05-23T00:03:32;102077.09;;;16.24;73.95
72086;BME280;64750;52.134;5.424;2023-05-23T00:06:00;102074.50;;;16.37;73.86
72086;BME280;64750;52.134;5.424;2023-05-23T00:08:26;102078.03;;;16.23;74.23
72086;BME280;64750;52.134;5.424;2023-05-23T00:10:53;102071.03;;;16.22;74.31
72086;BME280;64750;52.134;5.424;2023-05-23T00:13:19;102079.91;;;16.21;74.40
72086;BME280;64750;52.134;5.424;2023-05-23T00:15:46;102069.63;;;16.17;74.59
72086;BME280;64750;52.134;5.424;2023-05-23T00:18:13;102077.03;;;16.12;74.70
72086;BME280;64750;52.134;5.424;2023-05-23T00:20:41;102081.47;;;16.11;74.80
72086;BME280;64750;52.134;5.424;2023-05-23T00:23:09;102079.22;;;16.05;74.98
72086;BME280;64750;52.134;5.424;2023-05-23T00:25:36;102087.09;;;16.06;75.26
72086;BME280;64750;52.134;5.424;2023-05-23T00:28:04;102090.41;;;16.10;75.12
72086;BME280;64750;52.134;5.424;2023-05-23T00:30:32;102095.31;;;16.02;75.13
72086;BME280;64750;52.134;5.424;2023-05-23T00:32:59;102100.94;;;15.97;75.42
72086;BME280;64750;52.134;5.424;2023-05-23T00:35:26;102103.09;;;15.90;75.56
72086;BME280;64750;52.134;5.424;2023-05-23T00:37:53;102105.94;;;15.87;75.55
72086;BME280;64750;52.134;5.424;2023-05-23T00:40:21;102098.63;;;15.77;76.06
72086;BME280;64750;52.134;5.424;2023-05-23T00:42:48;102096.44;;;15.54;76.75
72086;BME280;64750;52.134;5.424;2023-05-23T00:45:15;102096.75;;;15.50;77.27
72086;BME280;64750;52.134;5.424;2023-05-23T00:47:43;102104.03;;;15.46;77.59
72086;BME280;64750;52.134;5.424;2023-05-23T00:50:11;102104.69;;;15.50;77.67
72086;BME280;64750;52.134;5.424;2023-05-23T00:52:40;102103.09;;;15.47;77.39
72086;BME280;64750;52.134;5.424;2023-05-23T00:55:07;102103.72;;;15.51;77.31
72086;BME280;64750;52.134;5.424;2023-05-23T00:57:34;102104.13;;;15.45;77.53
72086;BME280;64750;52.134;5.424;2023-05-23T01:00:06;102106.78;;;15.59;77.46
72086;BME280;64750;52.134;5.424;2023-05-23T01:02:44;102105.91;;;15.58;77.00
72086;BME280;64750;52.134;5.424;2023-05-23T01:05:15;102105.44;;;15.52;77.12
72086;BME280;64750;52.134;5.424;2023-05-23T01:07:46;102110.94;;;15.49;77.41
72086;BME280;64750;52.134;5.424;2023-05-23T01:10:18;102104.56;;;15.37;77.75
72086;BME280;64750;52.134;5.424;2023-05-23T01:13:08;102097.47;;;15.37;77.76
72086;BME280;64750;52.134;5.424;2023-05-23T01:18:29;102100.50;;;15.46;77.41
72086;BME280;64750;52.134;5.424;2023-05-23T01:21:03;102104.03;;;15.46;77.41
72086;BME280;64750;52.134;5.424;2023-05-23T01:24:02;102106.38;;;15.51;77.41
72086;BME280;64750;52.134;5.424;2023-05-23T01:29:31;102106.09;;;15.41;77.32
72086;BME280;64750;52.134;5.424;2023-05-23T01:31:59;102121.06;;;15.42;77.64
72086;BME280;64750;52.134;5.424;2023-05-23T01:34:27;102103.09;;;15.47;77.64
72086;BME280;64750;52.134;5.424;2023-05-23T01:36:55;102097.94;;;15.44;77.61
72086;BME280;64750;52.134;5.424;2023-05-23T01:39:22;102100.91;;;15.54;77.62
72086;BME280;64750;52.134;5.424;2023-05-23T01:41:50;102100.22;;;15.65;77.13
72086;BME280;64750;52.134;5.424;2023-05-23T01:44:17;102103.66;;;15.67;76.88
72086;BME280;64750;52.134;5.424;2023-05-23T01:46:47;102100.69;;;15.71;76.81
72086;BME280;64750;52.134;5.424;2023-05-23T01:49:15;102103.06;;;15.76;76.66
72086;BME280;64750;52.134;5.424;2023-05-23T01:51:44;102106.00;;;15.57;76.86
72086;BME280;64750;52.134;5.424;2023-05-23T01:54:12;102105.44;;;15.52;76.76
72086;BME280;64750;52.134;5.424;2023-05-23T01:56:40;102110.72;;;15.37;77.37
72086;BME280;64750;52.134;5.424;2023-05-23T01:59:08;102116.50;;;15.44;77.47
72086;BME280;64750;52.134;5.424;2023-05-23T02:01:35;102108.81;;;15.39;77.27
72086;BME280;64750;52.134;5.424;2023-05-23T02:04:03;102121.13;;;15.40;77.15
72086;BME280;64750;52.134;5.424;2023-05-23T02:06:29;102122.34;;;15.35;77.22
72086;BME280;64750;52.134;5.424;2023-05-23T02:08:57;102115.09;;;15.38;76.97
72086;BME280;64750;52.134;5.424;2023-05-23T02:11:23;102126.63;;;15.37;76.97
72086;BME280;64750;52.134;5.424;2023-05-23T02:13:51;102135.28;;;15.25;77.07
72086;BME280;64750;52.134;5.424;2023-05-23T02:16:17;102131.31;;;15.18;77.20
72086;BME280;64750;52.134;5.424;2023-05-23T02:18:43;102128.84;;;15.15;77.25
72086;BME280;64750;52.134;5.424;2023-05-23T02:21:11;102130.66;;;15.14;77.14
72086;BME280;64750;52.134;5.424;2023-05-23T02:23:38;102130.28;;;15.20;77.15
72086;BME280;64750;52.134;5.424;2023-05-23T02:26:04;102130.66;;;15.29;76.92
72086;BME280;64750;52.134;5.424;2023-05-23T02:28:31;102133.22;;;15.30;77.04
72086;BME280;64750;52.134;5.424;2023-05-23T02:30:57;102132.19;;;15.33;76.73
72086;BME280;64750;52.134;5.424;2023-05-23T02:33:24;102132.75;;;15.23;76.89
72086;BME280;64750;52.134;5.424;2023-05-23T02:35:50;102143.88;;;15.14;77.01
72086;BME280;64750;52.134;5.424;2023-05-23T02:38:17;102142.44;;;15.08;77.20
72086;BME280;64750;52.134;5.424;2023-05-23T02:40:45;102143.97;;;15.13;77.18
72086;BME280;64750;52.134;5.424;2023-05-23T02:43:12;102140.56;;;15.11;77.34
72086;BME280;64750;52.134;5.424;2023-05-23T02:45:38;102139.91;;;15.21;77.03
72086;BME280;64750;52.134;5.424;2023-05-23T02:48:05;102146.09;;;15.22;76.89
72086;BME280;64750;52.134;5.424;2023-05-23T02:50:32;102145.72;;;15.28;76.47
72086;BME280;64750;52.134;5.424;2023-05-23T02:52:58;102153.00;;;15.24;76.44
72086;BME280;64750;52.134;5.424;2023-05-23T02:55:24;102154.78;;;15.24;76.28
72086;BME280;64750;52.134;5.424;2023-05-23T02:57:51;102150.91;;;15.30;76.26
72086;BME280;64750;52.134;5.424;2023-05-23T03:00:18;102155.19;;;15.32;75.95
72086;BME280;64750;52.134;5.424;2023-05-23T03:02:44;102154.69;;;15.25;76.09
72086;BME280;64750;52.134;5.424;2023-05-23T03:05:11;102153.38;;;15.33;76.09
72086;BME280;64750;52.134;5.424;2023-05-23T03:07:37;102150.16;;;15.28;76.16
72086;BME280;64750;52.134;5.424;2023-05-23T03:10:05;102147.78;;;15.23;76.08
72086;BME280;64750;52.134;5.424;2023-05-23T03:12:32;102149.66;;;15.21;76.07
72086;BME280;64750;52.134;5.424;2023-05-23T03:14:58;102147.94;;;15.20;76.09
72086;BME280;64750;52.134;5.424;2023-05-23T03:17:25;102150.69;;;15.18;76.17
72086;BME280;64750;52.134;5.424;2023-05-23T03:19:51;102146.81;;;15.24;75.75
72086;BME280;64750;52.134;5.424;2023-05-23T03:22:18;102150.78;;;15.17;75.88
72086;BME280;64750;52.134;5.424;2023-05-23T03:24:44;102159.28;;;15.07;76.17
72086;BME280;64750;52.134;5.424;2023-05-23T03:27:10;102159.94;;;15.11;76.14
72086;BME280;64750;52.134;5.424;2023-05-23T03:29:37;102158.75;;;15.17;76.03
72086;BME280;64750;52.134;5.424;2023-05-23T03:32:03;102150.03;;;15.15;75.99
72086;BME280;64750;52.134;5.424;2023-05-23T03:34:31;102155.41;;;15.13;75.93
72086;BME280;64750;52.134;5.424;2023-05-23T03:36:58;102161.38;;;15.17;75.73
72086;BME280;64750;52.134;5.424;2023-05-23T03:39:25;102158.31;;;15.08;76.00
72086;BME280;64750;52.134;5.424;2023-05-23T03:41:52;102161.06;;;15.07;75.89
72086;BME280;64750;52.134;5.424;2023-05-23T03:44:18;102167.03;;;15.11;75.93
72086;BME280;64750;52.134;5.424;2023-05-23T03:46:45;102170.81;;;15.06;75.53
72086;BME280;64750;52.134;5.424;2023-05-23T03:49:11;102170.56;;;14.95;75.94
72086;BME280;64750;52.134;5.424;2023-05-23T03:51:37;102173.38;;;14.92;75.96
72086;BME280;64750;52.134;5.424;2023-05-23T03:54:04;102176.03;;;14.92;75.52
72086;BME280;64750;52.134;5.424;2023-05-23T03:56:30;102185.03;;;14.73;76.11
72086;BME280;64750;52.134;5.424;2023-05-23T03:58:57;102182.78;;;14.82;75.53
72086;BME280;64750;52.134;5.424;2023-05-23T04:01:23;102185.81;;;14.75;76.10
72086;BME280;64750;52.134;5.424;2023-05-23T04:03:50;102192.19;;;14.71;75.89
72086;BME280;64750;52.134;5.424;2023-05-23T04:06:18;102198.59;;;14.67;76.18
72086;BME280;64750;52.134;5.424;2023-05-23T04:08:45;102201.69;;;14.75;76.19
72086;BME280;64750;52.134;5.424;2023-05-23T04:11:11;102198.94;;;14.77;75.86
72086;BME280;64750;52.134;5.424;2023-05-23T04:13:38;102201.16;;;14.69;76.12
72086;BME280;64750;52.134;5.424;2023-05-23T04:16:05;102205.59;;;14.68;76.22
72086;BME280;64750;52.134;5.424;2023-05-23T04:18:31;102198.06;;;14.76;76.18
72086;BME280;64750;52.134;5.424;2023-05-23T04:21:04;102200.81;;;14.75;75.93
72086;BME280;64750;52.134;5.424;2023-05-23T04:23:31;102215.56;;;14.63;76.45
72086;BME280;64750;52.134;5.424;2023-05-23T04:25:57;102207.13;;;14.72;76.23
72086;BME280;64750;52.134;5.424;2023-05-23T04:28:25;102220.13;;;14.77;76.16
72086;BME280;64750;52.134;5.424;2023-05-23T04:30:52;102224.47;;;14.78;75.96
72086;BME280;64750;52.134;5.424;2023-05-23T04:33:19;102220.81;;;14.81;75.71
72086;BME280;64750;52.134;5.424;2023-05-23T04:35:45;102228.91;;;14.77;75.29
72086;BME280;64750;52.134;5.424;2023-05-23T04:38:12;102224.13;;;14.68;75.32
72086;BME280;64750;52.134;5.424;2023-05-23T04:40:38;102234.91;;;14.65;75.20
72086;BME280;64750;52.134;5.424;2023-05-23T04:43:08;102236.31;;;14.55;75.30
72086;BME280;64750;52.134;5.424;2023-05-23T04:45:35;102229.78;;;14.44;75.55
72086;BME280;64750;52.134;5.424;2023-05-23T04:48:07;102226.38;;;14.42;75.67
72086;BME280;64750;52.134;5.424;2023-05-23T04:50:33;102236.47;;;14.52;75.67
72086;BME280;64750;52.134;5.424;2023-05-23T04:53:01;102232.03;;;14.52;75.59
72086;BME280;64750;52.134;5.424;2023-05-23T04:55:27;102246.03;;;14.54;75.43
72086;BME280;64750;52.134;5.424;2023-05-23T04:57:54;102241.75;;;14.52;75.40
72086;BME280;64750;52.134;5.424;2023-05-23T05:00:20;102250.75;;;14.32;75.12
72086;BME280;64750;52.134;5.424;2023-05-23T05:02:46;102251.63;;;14.32;75.42
72086;BME280;64750;52.134;5.424;2023-05-23T05:05:13;102265.94;;;14.28;75.47
72086;BME280;64750;52.134;5.424;2023-05-23T05:07:40;102275.84;;;14.24;75.53
72086;BME280;64750;52.134;5.424;2023-05-23T05:10:07;102263.88;;;14.17;75.01
72086;BME280;64750;52.134;5.424;2023-05-23T05:12:34;102276.75;;;14.23;75.15
72086;BME280;64750;52.134;5.424;2023-05-23T05:15:02;102276.53;;;14.28;74.17
72086;BME280;64750;52.134;5.424;2023-05-23T05:17:28;102283.25;;;14.18;73.84
72086;BME280;64750;52.134;5.424;2023-05-23T05:19:55;102288.59;;;14.16;73.89
72086;BME280;64750;52.134;5.424;2023-05-23T05:22:22;102295.84;;;14.13;73.45
72086;BME280;64750;52.134;5.424;2023-05-23T05:24:48;102290.16;;;14.20;73.70
72086;BME280;64750;52.134;5.424;2023-05-23T05:27:15;102301.41;;;14.24;73.20
72086;BME280;64750;52.134;5.424;2023-05-23T05:29:41;102300.56;;;14.23;72.06
72086;BME280;64750;52.134;5.424;2023-05-23T05:32:08;102306.44;;;14.13;71.75
72086;BME280;64750;52.134;5.424;2023-05-23T05:34:34;102307.50;;;14.08;72.16
72086;BME280;64750;52.134;5.424;2023-05-23T05:37:03;102315.91;;;14.17;71.60
72086;BME280;64750;52.134;5.424;2023-05-23T05:39:29;102309.81;;;13.97;71.20
72086;BME280;64750;52.134;5.424;2023-05-23T05:41:55;102312.56;;;13.95;71.69
72086;BME280;64750;52.134;5.424;2023-05-23T05:44:22;102324.75;;;13.98;71.10
72086;BME280;64750;52.134;5.424;2023-05-23T05:46:49;102320.09;;;14.03;71.65
72086;BME280;64750;52.134;5.424;2023-05-23T05:49:15;102320.09;;;14.03;71.13
72086;BME280;64750;52.134;5.424;2023-05-23T05:51:41;102335.25;;;14.00;70.34
72086;BME280;64750;52.134;5.424;2023-05-23T05:54:08;102331.31;;;13.91;70.65
72086;BME280;64750;52.134;5.424;2023-05-23T05:56:34;102330.53;;;13.89;70.81
72086;BME280;64750;52.134;5.424;2023-05-23T05:59:01;102346.16;;;13.93;70.60
72086;BME280;64750;52.134;5.424;2023-05-23T06:01:27;102341.00;;;13.90;70.71
72086;BME280;64750;52.134;5.424;2023-05-23T06:03:54;102348.72;;;13.95;70.44
72086;BME280;64750;52.134;5.424;2023-05-23T06:06:21;102355.09;;;13.91;70.34
72086;BME280;64750;52.134;5.424;2023-05-23T06:08:47;102361.31;;;13.90;70.21
72086;BME280;64750;52.134;5.424;2023-05-23T06:11:14;102355.94;;;13.91;70.16
72086;BME280;64750;52.134;5.424;2023-05-23T06:13:41;102360.19;;;13.76;68.92
72086;BME280;64750;52.134;5.424;2023-05-23T06:16:07;102363.16;;;13.70;69.08
72086;BME280;64750;52.134;5.424;2023-05-23T06:18:34;102364.81;;;13.73;69.24
72086;BME280;64750;52.134;5.424;2023-05-23T06:21:01;102365.94;;;13.67;69.10
72086;BME280;64750;52.134;5.424;2023-05-23T06:23:27;102361.44;;;13.69;69.36
72086;BME280;64750;52.134;5.424;2023-05-23T06:25:55;102358.81;;;13.69;69.93
72086;BME280;64750;52.134;5.424;2023-05-23T06:28:21;102361.16;;;13.75;69.94
72086;BME280;64750;52.134;5.424;2023-05-23T06:30:48;102358.34;;;13.78;70.31
72086;BME280;64750;52.134;5.424;2023-05-23T06:33:15;102367.19;;;13.77;69.86
72086;BME280;64750;52.134;5.424;2023-05-23T06:35:42;102356.72;;;13.76;70.22
72086;BME280;64750;52.134;5.424;2023-05-23T06:38:08;102360.19;;;13.76;70.48
72086;BME280;64750;52.134;5.424;2023-05-23T06:40:35;102358.34;;;13.78;70.36
72086;BME280;64750;52.134;5.424;2023-05-23T06:43:01;102357.41;;;13.80;70.35
72086;BME280;64750;52.134;5.424;2023-05-23T06:45:27;102363.47;;;13.82;70.31
72086;BME280;64750;52.134;5.424;2023-05-23T06:47:54;102366.94;;;13.65;70.65
72086;BME280;64750;52.134;5.424;2023-05-23T06:50:21;102365.94;;;13.67;70.74
72086;BME280;64750;52.134;5.424;2023-05-23T06:52:47;102367.50;;;13.71;71.04
72086;BME280;64750;52.134;5.424;2023-05-23T06:55:15;102368.66;;;13.66;71.47
72086;BME280;64750;52.134;5.424;2023-05-23T06:57:45;102374.94;;;13.63;71.85
72086;BME280;64750;52.134;5.424;2023-05-23T07:00:12;102369.38;;;13.69;71.99
72086;BME280;64750;52.134;5.424;2023-05-23T07:02:41;102379.78;;;13.72;71.50
72086;BME280;64750;52.134;5.424;2023-05-23T07:05:08;102381.66;;;13.70;72.15
72086;BME280;64750;52.134;5.424;2023-05-23T07:07:34;102382.22;;;13.77;72.00
72086;BME280;64750;52.134;5.424;2023-05-23T07:10:01;102375.91;;;13.80;71.76
72086;BME280;64750;52.134;5.424;2023-05-23T07:12:27;102381.91;;;13.83;71.95
72086;BME280;64750;52.134;5.424;2023-05-23T07:14:54;102393.31;;;13.84;72.05
72086;BME280;64750;52.134;5.424;2023-05-23T07:17:20;102402.00;;;13.68;72.90
72086;BME280;64750;52.134;5.424;2023-05-23T07:19:48;102406.78;;;13.60;72.58
72086;BME280;64750;52.134;5.424;2023-05-23T07:22:14;102411.66;;;13.69;72.42
72086;BME280;64750;52.134;5.424;2023-05-23T07:24:41;102404.94;;;13.62;71.79
72086;BME280;64750;52.134;5.424;2023-05-23T07:27:07;102399.84;;;13.57;70.97
72086;BME280;64750;52.134;5.424;2023-05-23T07:29:33;102410.38;;;13.59;70.82
72086;BME280;64750;52.134;5.424;2023-05-23T07:32:00;102403.59;;;13.53;69.89
72086;BME280;64750;52.134;5.424;2023-05-23T07:34:26;102400.09;;;13.53;68.32
72086;BME280;64750;52.134;5.424;2023-05-23T07:36:53;102408.03;;;13.53;67.73
72086;BME280;64750;52.134;5.424;2023-05-23T07:39:19;102409.66;;;13.55;67.57
72086;BME280;64750;52.134;5.424;2023-05-23T07:41:47;102406.66;;;13.63;67.63
72086;BME280;64750;52.134;5.424;2023-05-23T07:44:15;102409.22;;;13.65;67.88
72086;BME280;64750;52.134;5.424;2023-05-23T07:46:41;102413.66;;;13.64;66.98
72086;BME280;64750;52.134;5.424;2023-05-23T07:49:08;102409.03;;;13.50;66.64
72086;BME280;64750;52.134;5.424;2023-05-23T07:51:35;102413.22;;;13.54;66.26
72086;BME280;64750;52.134;5.424;2023-05-23T07:54:01;102419.06;;;13.61;65.88
72086;BME280;64750;52.134;5.424;2023-05-23T07:56:28;102423.94;;;13.70;65.63
72086;BME280;64750;52.134;5.424;2023-05-23T07:58:54;102421.94;;;13.75;65.91
72086;BME280;64750;52.134;5.424;2023-05-23T08:01:21;102423.94;;;13.70;65.77
72086;BME280;64750;52.134;5.424;2023-05-23T08:03:47;102417.06;;;13.66;66.14
72086;BME280;64750;52.134;5.424;2023-05-23T08:06:14;102419.22;;;13.77;66.26
72086;BME280;64750;52.134;5.424;2023-05-23T08:08:40;102423.31;;;13.83;65.67
72086;BME280;64750;52.134;5.424;2023-05-23T08:11:09;102416.91;;;13.88;65.74
72086;BME280;64750;52.134;5.424;2023-05-23T08:13:35;102425.50;;;13.92;65.29
72086;BME280;64750;52.134;5.424;2023-05-23T08:16:02;102424.59;;;13.93;64.60
72086;BME280;64750;52.134;5.424;2023-05-23T08:18:28;102438.59;;;13.95;64.29
72086;BME280;64750;52.134;5.424;2023-05-23T08:20:56;102432.03;;;13.85;64.34
72086;BME280;64750;52.134;5.424;2023-05-23T08:23:22;102431.41;;;13.80;64.92
72086;BME280;64750;52.134;5.424;2023-05-23T08:25:49;102433.56;;;13.71;65.37
72086;BME280;64750;52.134;5.424;2023-05-23T08:28:15;102437.63;;;13.78;65.62
72086;BME280;64750;52.134;5.424;2023-05-23T08:30:42;102441.06;;;13.81;65.83
72086;BME280;64750;52.134;5.424;2023-05-23T08:33:08;102444.38;;;13.84;65.29
72086;BME280;64750;52.134;5.424;2023-05-23T08:35:35;102444.00;;;13.92;64.69
72086;BME280;64750;52.134;5.424;2023-05-23T08:38:05;102450.31;;;13.89;64.14
72086;BME280;64750;52.134;5.424;2023-05-23T08:40:33;102448.75;;;13.85;63.75
72086;BME280;64750;52.134;5.424;2023-05-23T08:43:01;102449.91;;;13.80;64.10
72086;BME280;64750;52.134;5.424;2023-05-23T08:45:28;102449.75;;;13.83;64.43
72086;BME280;64750;52.134;5.424;2023-05-23T08:47:59;102458.59;;;13.82;63.98
72086;BME280;64750;52.134;5.424;2023-05-23T08:50:27;102452.56;;;13.80;64.04
72086;BME280;64750;52.134;5.424;2023-05-23T08:52:55;102455.75;;;13.86;63.90
72086;BME280;64750;52.134;5.424;2023-05-23T08:55:27;102463.31;;;13.94;63.43
72086;BME280;64750;52.134;5.424;2023-05-23T08:57:56;102470.66;;;14.06;63.12
72086;BME280;64750;52.134;5.424;2023-05-23T09:00:24;102471.41;;;14.08;63.54
72086;BME280;64750;52.134;5.424;2023-05-23T09:02:50;102471.56;;;14.05;63.70
72086;BME280;64750;52.134;5.424;2023-05-23T09:05:18;102468.72;;;14.10;64.26
72086;BME280;64750;52.134;5.424;2023-05-23T09:07:45;102480.84;;;14.14;63.84
72086;BME280;64750;52.134;5.424;2023-05-23T09:10:16;102482.78;;;14.10;63.21
72086;BME280;64750;52.134;5.424;2023-05-23T09:12:45;102480.22;;;14.09;62.17
72086;BME280;64750;52.134;5.424;2023-05-23T09:15:12;102474.00;;;14.10;62.10
72086;BME280;64750;52.134;5.424;2023-05-23T09:17:39;102479.69;;;14.20;61.97
72086;BME280;64750;52.134;5.424;2023-05-23T09:20:10;102474.34;;;14.39;61.84
72086;BME280;64750;52.134;5.424;2023-05-23T09:22:37;102490.31;;;14.55;61.28
72086;BME280;64750;52.134;5.424;2023-05-23T09:25:05;102489.03;;;14.62;60.65
72086;BME280;64750;52.134;5.424;2023-05-23T09:27:32;102483.63;;;14.65;59.84
72086;BME280;64750;52.134;5.424;2023-05-23T09:30:04;102480.19;;;14.81;59.71
72086;BME280;64750;52.134;5.424;2023-05-23T09:32:31;102479.44;;;14.95;59.55
72086;BME280;64750;52.134;5.424;2023-05-23T09:34:59;102492.16;;;14.88;59.23
72086;BME280;64750;52.134;5.424;2023-05-23T09:37:39;102486.56;;;14.76;60.54
72086;BME280;64750;52.134;5.424;2023-05-23T09:40:10;102496.41;;;14.74;60.61
72086;BME280;64750;52.134;5.424;2023-05-23T09:42:42;102491.94;;;14.75;60.18
72086;BME280;64750;52.134;5.424;2023-05-23T09:45:10;102485.94;;;14.71;60.24
72086;BME280;64750;52.134;5.424;2023-05-23T09:47:36;102481.22;;;14.78;59.37
72086;BME280;64750;52.134;5.424;2023-05-23T09:50:04;102495.47;;;14.75;59.20
72086;BME280;64750;52.134;5.424;2023-05-23T09:52:37;102492.03;;;14.73;58.98
72086;BME280;64750;52.134;5.424;2023-05-23T09:55:04;102487.53;;;14.75;58.06
72086;BME280;64750;52.134;5.424;2023-05-23T09:57:39;102491.84;;;14.76;58.11
72086;BME280;64750;52.134;5.424;2023-05-23T10:00:06;102497.53;;;14.86;57.98
72086;BME280;64750;52.134;5.424;2023-05-23T10:05:34;102501.13;;;14.85;58.72
72086;BME280;64750;52.134;5.424;2023-05-23T10:08:07;102506.50;;;14.84;59.51
72086;BME280;64750;52.134;5.424;2023-05-23T10:10:34;102508.34;;;14.82;57.95
72086;BME280;64750;52.134;5.424;2023-05-23T10:13:16;102510.94;;;14.83;56.75
72086;BME280;64750;52.134;5.424;2023-05-23T10:15:43;102495.28;;;14.96;56.59
72086;BME280;64750;52.134;5.424;2023-05-23T10:18:25;102501.63;;;15.09;56.65
72086;BME280;64750;52.134;5.424;2023-05-23T10:20:56;102507.44;;;15.16;56.63
72086;BME280;64750;52.134;5.424;2023-05-23T10:23:28;102501.63;;;15.09;57.49
72086;BME280;64750;52.134;5.424;2023-05-23T10:25:55;102511.72;;;14.85;58.59
72086;BME280;64750;52.134;5.424;2023-05-23T10:28:21;102521.69;;;14.80;60.05
72086;BME280;64750;52.134;5.424;2023-05-23T10:30:48;102514.28;;;14.87;60.42
72086;BME280;64750;52.134;5.424;2023-05-23T10:33:14;102509.75;;;14.89;59.57
72086;BME280;64750;52.134;5.424;2023-05-23T10:36:07;102521.06;;;14.92;58.87
72086;BME280;64750;52.134;5.424;2023-05-23T10:43:44;102514.16;;;15.06;57.94
72086;BME280;64750;52.134;5.424;2023-05-23T10:46:13;102521.16;;;14.91;57.24
72086;BME280;64750;52.134;5.424;2023-05-23T10:48:41;102521.69;;;14.80;58.46
72086;BME280;64750;52.134;5.424;2023-05-23T10:51:11;102518.81;;;14.85;58.07
72086;BME280;64750;52.134;5.424;2023-05-23T10:53:42;102530.16;;;14.87;58.14
72086;BME280;64750;52.134;5.424;2023-05-23T10:56:19;102528.88;;;14.78;58.49
72086;BME280;64750;52.134;5.424;2023-05-23T10:58:55;102523.09;;;14.70;59.01
72086;BME280;64750;52.134;5.424;2023-05-23T11:01:23;102520.34;;;14.89;58.45
72086;BME280;64750;52.134;5.424;2023-05-23T11:03:52;102521.59;;;14.99;58.61
72086;BME280;64750;52.134;5.424;2023-05-23T11:06:42;102530.94;;;14.89;57.58
72086;BME280;64750;52.134;5.424;2023-05-23T11:09:11;102526.22;;;14.78;57.97
72086;BME280;64750;52.134;5.424;2023-05-23T11:11:54;102530.31;;;14.84;58.20
72086;BME280;64750;52.134;5.424;2023-05-23T11:17:00;102521.06;;;14.92;56.50
72086;BME280;64750;52.134;5.424;2023-05-23T11:19:54;102518.00;;;15.18;56.94
72086;BME280;64750;52.134;5.424;2023-05-23T11:22:26;102507.50;;;15.32;55.88
72086;BME280;64750;52.134;5.424;2023-05-23T11:24:54;102514.34;;;15.36;54.28
72086;BME280;64750;52.134;5.424;2023-05-23T11:27:31;102514.66;;;15.30;54.63
72086;BME280;64750;52.134;5.424;2023-05-23T11:30:02;102520.91;;;15.29;55.46
72086;BME280;64750;52.134;5.424;2023-05-23T11:32:30;102534.28;;;15.10;54.72
72086;BME280;64750;52.134;5.424;2023-05-23T11:35:01;102541.06;;;14.98;55.99
72086;BME280;64750;52.134;5.424;2023-05-23T11:37:29;102535.44;;;15.04;57.02
72086;BME280;64750;52.134;5.424;2023-05-23T11:39:56;102536.66;;;15.15;57.35
72086;BME280;64750;52.134;5.424;2023-05-23T11:42:23;102530.16;;;15.04;56.55
72086;BME280;64750;52.134;5.424;2023-05-23T11:44:50;102535.44;;;15.04;56.35
72086;BME280;64750;52.134;5.424;2023-05-23T11:47:18;102539.63;;;15.08;55.82
72086;BME280;64750;52.134;5.424;2023-05-23T11:49:45;102535.31;;;15.07;55.84
72086;BME280;64750;52.134;5.424;2023-05-23T11:52:12;102533.41;;;15.09;56.47
72086;BME280;64750;52.134;5.424;2023-05-23T11:54:40;102531.69;;;15.08;54.94
72086;BME280;64750;52.134;5.424;2023-05-23T11:57:08;102536.38;;;15.03;55.93
72086;BME280;64750;52.134;5.424;2023-05-23T11:59:35;102539.69;;;14.91;55.71
72086;BME280;64750;52.134;5.424;2023-05-23T12:02:04;102552.59;;;14.80;54.76
72086;BME280;64750;52.134;5.424;2023-05-23T12:04:33;102542.16;;;14.76;55.98
72086;BME280;64750;52.134;5.424;2023-05-23T12:07:03;102536.53;;;15.00;56.10
72086;BME280;64750;52.134;5.424;2023-05-23T12:09:30;102550.09;;;15.12;55.46
72086;BME280;64750;52.134;5.424;2023-05-23T12:11:56;102545.28;;;15.02;54.19
72086;BME280;64750;52.134;5.424;2023-05-23T12:14:27;102539.81;;;15.05;53.27
72086;BME280;64750;52.134;5.424;2023-05-23T12:16:54;102541.97;;;15.15;53.42
72086;BME280;64750;52.134;5.424;2023-05-23T12:19:20;102530.75;;;15.27;52.92
72086;BME280;64750;52.134;5.424;2023-05-23T12:21:48;102542.19;;;15.28;52.68
72086;BME280;64750;52.134;5.424;2023-05-23T12:26:49;102543.81;;;15.30;53.12
72086;BME280;64750;52.134;5.424;2023-05-23T12:29:35;102552.25;;;15.21;53.36
72086;BME280;64750;52.134;5.424;2023-05-23T12:32:05;102542.25;;;15.26;54.30
72086;BME280;64750;52.134;5.424;2023-05-23T12:34:32;102548.97;;;15.16;54.29
72086;BME280;64750;52.134;5.424;2023-05-23T12:37:00;102550.94;;;15.12;54.74
72086;BME280;64750;52.134;5.424;2023-05-23T12:39:44;102559.09;;;15.25;54.18
72086;BME280;64750;52.134;5.424;2023-05-23T12:42:11;102555.50;;;15.26;54.07
72086;BME280;64750;52.134;5.424;2023-05-23T12:44:40;102548.69;;;15.38;53.81
72086;BME280;64750;52.134;5.424;2023-05-23T12:47:07;102559.16;;;15.41;53.24
72086;BME280;64750;52.134;5.424;2023-05-23T12:49:33;102550.00;;;15.47;54.28
72086;BME280;64750;52.134;5.424;2023-05-23T12:52:00;102551.63;;;15.49;53.16
72086;BME280;64750;52.134;5.424;2023-05-23T12:54:26;102568.81;;;15.42;54.20
72086;BME280;64750;52.134;5.424;2023-05-23T12:56:53;102568.13;;;15.21;54.44
72086;BME280;64750;52.134;5.424;2023-05-23T12:59:19;102567.38;;;15.01;54.37
72086;BME280;64750;52.134;5.424;2023-05-23T13:01:45;102561.09;;;15.04;54.03
72086;BME280;64750;52.134;5.424;2023-05-23T13:04:12;102551.34;;;15.04;53.51
72086;BME280;64750;52.134;5.424;2023-05-23T13:06:41;102556.50;;;15.07;53.04
72086;BME280;64750;52.134;5.424;2023-05-23T13:09:08;102552.75;;;15.12;52.02
72086;BME280;64750;52.134;5.424;2023-05-23T13:11:35;102548.81;;;15.19;52.73
72086;BME280;64750;52.134;5.424;2023-05-23T13:14:03;102557.47;;;15.22;51.66